Time;durP1;ratioP1;P1;durP2;ratioP2;P2;SDS_P1;SDS_P2;PMS_P1;PMS_P2;Temp;Humidity;BMP_temperature;BMP_pressure;BME280_temperature;BME280_humidity;BME280_pressure;Samples;Min_cycle;Max_cycle;Signal;HPM_P1;HPM_P2
2023/07/23 00:01:22;;;;;;;;;2.67;2.00;;;;;;;;4990252;28;45961;-77
2023/07/23 00:03:47;;;;;;;;;2.67;2.67;;;;;;;;4976157;28;46341;-76
2023/07/23 00:06:12;;;;;;;;;2.00;2.00;;;;;;;;4987780;28;46511;-76
2023/07/23 00:08:38;;;;;;;;;2.33;2.00;;;;;;;;4987548;28;45918;-77
2023/07/23 00:11:03;;;;;;;;;4.00;1.00;;;;;;;;4991729;28;45428;-76
2023/07/23 00:13:28;;;;;;;;;3.67;3.00;;;;;;;;4990510;28;45702;-75
2023/07/23 00:15:53;;;;;;;;;2.00;2.00;;;;;;;;4991463;28;45706;-77
2023/07/23 00:18:19;;;;;;;;;3.67;3.67;;;;;;;;4988091;28;45468;-77
2023/07/23 00:20:44;;;;;;;;;3.00;3.00;;;;;;;;4970791;28;45416;-79
2023/07/23 00:23:09;;;;;;;;;2.00;2.00;;;;;;;;4983839;28;45958;-79
2023/07/23 00:25:34;;;;;;;;;4.00;3.00;;;;;;;;4980747;28;46512;-79
2023/07/23 00:28:00;;;;;;;;;2.00;2.00;;;;;;;;4976735;28;46185;-79
2023/07/23 00:30:25;;;;;;;;;3.67;3.67;;;;;;;;4977638;28;45485;-79
2023/07/23 00:32:50;;;;;;;;;3.67;2.00;;;;;;;;4983104;28;45503;-80
2023/07/23 00:35:16;;;;;;;;;4.67;4.67;;;;;;;;4989566;28;46332;-79
2023/07/23 00:37:41;;;;;;;;;2.00;2.00;;;;;;;;4990949;28;45488;-76
2023/07/23 00:40:07;;;;;;;;;7.67;2.33;;;;;;;;4988293;28;45942;-76
2023/07/23 00:42:33;;;;;;;;;2.00;2.00;;;;;;;;4990661;28;45643;-77
2023/07/23 00:44:58;;;;;;;;;2.00;2.00;;;;;;;;4992774;28;45912;-75
2023/07/23 00:47:23;;;;;;;;;2.00;1.00;;;;;;;;4973044;28;45742;-77
2023/07/23 00:49:49;;;;;;;;;2.67;1.33;;;;;;;;4991029;28;45757;-76
2023/07/23 00:52:15;;;;;;;;;1.33;1.00;;;;;;;;4990802;28;45848;-75
2023/07/23 00:54:40;;;;;;;;;2.67;2.67;;;;;;;;4990788;28;45737;-76
2023/07/23 00:57:06;;;;;;;;;3.00;3.00;;;;;;;;4972354;28;45928;-75
2023/07/23 00:59:32;;;;;;;;;4.00;2.67;;;;;;;;4990420;28;45391;-77
2023/07/23 01:01:57;;;;;;;;;4.33;2.00;;;;;;;;4989993;28;45806;-77
2023/07/23 01:04:23;;;;;;;;;5.00;4.00;;;;;;;;4990143;28;45879;-77
2023/07/23 01:06:49;;;;;;;;;2.00;2.00;;;;;;;;4991890;28;45443;-79
2023/07/23 01:09:16;;;;;;;;;1.33;1.33;;;;;;;;4971346;28;45431;-80
2023/07/23 01:11:41;;;;;;;;;3.67;3.67;;;;;;;;4995395;28;45552;-75
2023/07/23 01:14:07;;;;;;;;;3.00;2.00;;;;;;;;4973951;28;47815;-77
2023/07/23 01:16:33;;;;;;;;;3.00;3.00;;;;;;;;4990053;28;45801;-76
2023/07/23 01:18:59;;;;;;;;;3.33;3.33;;;;;;;;4989907;28;45831;-76
2023/07/23 01:21:24;;;;;;;;;2.00;2.00;;;;;;;;5004154;28;45487;-79
2023/07/23 01:23:49;;;;;;;;;3.00;2.00;;;;;;;;4993418;28;45344;-79
2023/07/23 01:26:16;;;;;;;;;2.00;2.00;;;;;;;;4993428;28;45478;-80
2023/07/23 01:28:41;;;;;;;;;1.33;1.33;;;;;;;;4968860;28;45481;-81
2023/07/23 01:31:07;;;;;;;;;3.00;3.00;;;;;;;;4987986;28;45452;-81
2023/07/23 01:33:33;;;;;;;;;4.00;3.00;;;;;;;;4970347;28;47116;-80
2023/07/23 01:35:59;;;;;;;;;5.67;3.00;;;;;;;;4971643;28;45530;-80
2023/07/23 01:38:25;;;;;;;;;2.00;2.00;;;;;;;;4988410;28;45519;-80
2023/07/23 01:40:50;;;;;;;;;2.00;2.00;;;;;;;;4988302;28;45697;-79
2023/07/23 01:43:16;;;;;;;;;3.00;2.00;;;;;;;;4973024;28;46654;-78
2023/07/23 01:45:42;;;;;;;;;2.67;2.67;;;;;;;;4986821;28;45775;-80
2023/07/23 01:48:07;;;;;;;;;4.00;2.67;;;;;;;;4989310;28;45514;-79
2023/07/23 01:50:33;;;;;;;;;3.00;3.00;;;;;;;;4988693;28;45547;-75
2023/07/23 01:52:58;;;;;;;;;3.67;3.00;;;;;;;;4990816;28;45924;-76
2023/07/23 01:55:23;;;;;;;;;4.33;2.00;;;;;;;;4972503;28;45715;-76
2023/07/23 01:57:48;;;;;;;;;2.67;2.67;;;;;;;;4988960;28;45752;-76
2023/07/23 02:00:14;;;;;;;;;3.33;2.67;;;;;;;;4988389;28;45733;-76
2023/07/23 02:02:39;;;;;;;;;5.00;2.00;;;;;;;;4986218;28;45881;-75
2023/07/23 02:05:05;;;;;;;;;1.67;1.67;;;;;;;;4963783;28;45826;-78
2023/07/23 02:07:30;;;;;;;;;4.00;3.00;;;;;;;;4997633;28;45888;-75
2023/07/23 02:09:55;;;;;;;;;5.00;3.50;;;;;;;;4988260;28;46078;-76
2023/07/23 02:12:21;;;;;;;;;3.00;3.00;;;;;;;;4988995;28;46422;-75
2023/07/23 02:14:46;;;;;;;;;3.33;3.00;;;;;;;;4970650;28;45754;-75
2023/07/23 02:17:11;;;;;;;;;3.67;2.67;;;;;;;;4968396;28;45453;-75
2023/07/23 02:19:37;;;;;;;;;4.33;3.33;;;;;;;;4988163;28;45860;-75
2023/07/23 02:22:02;;;;;;;;;3.33;3.33;;;;;;;;4969929;28;47816;-76
2023/07/23 02:24:28;;;;;;;;;5.00;3.33;;;;;;;;4983633;28;45717;-75
2023/07/23 02:26:53;;;;;;;;;3.00;3.00;;;;;;;;4987493;28;46210;-74
2023/07/23 02:29:18;;;;;;;;;2.00;2.00;;;;;;;;4986679;28;45715;-75
2023/07/23 02:31:43;;;;;;;;;3.33;3.00;;;;;;;;4993025;28;45987;-76
2023/07/23 02:34:08;;;;;;;;;5.00;4.00;;;;;;;;4987276;28;45438;-76
2023/07/23 02:36:34;;;;;;;;;3.67;3.67;;;;;;;;4988967;28;45776;-75
2023/07/23 02:39:00;;;;;;;;;2.00;2.00;;;;;;;;4971165;28;45843;-75
2023/07/23 02:41:25;;;;;;;;;4.00;4.00;;;;;;;;4974471;28;47066;-75
2023/07/23 02:43:50;;;;;;;;;2.00;2.00;;;;;;;;4986053;28;45810;-79
2023/07/23 02:46:15;;;;;;;;;4.00;3.00;;;;;;;;4991063;28;46161;-79
2023/07/23 02:48:41;;;;;;;;;4.00;3.00;;;;;;;;4992824;28;45654;-76
2023/07/23 02:51:06;;;;;;;;;3.33;3.33;;;;;;;;4990955;28;45761;-76
2023/07/23 02:53:31;;;;;;;;;2.00;2.00;;;;;;;;4992961;28;45985;-76
2023/07/23 02:55:56;;;;;;;;;4.00;4.00;;;;;;;;4992749;28;45896;-75
2023/07/23 02:58:21;;;;;;;;;2.33;2.33;;;;;;;;4994076;28;45872;-75
2023/07/23 03:00:47;;;;;;;;;3.00;3.00;;;;;;;;4993006;28;45420;-75
2023/07/23 03:03:12;;;;;;;;;3.67;3.00;;;;;;;;4993814;28;45444;-76
2023/07/23 03:05:37;;;;;;;;;4.00;3.00;;;;;;;;4993120;28;45494;-75
2023/07/23 03:08:03;;;;;;;;;2.00;2.00;;;;;;;;4992000;28;45871;-74
2023/07/23 03:10:29;;;;;;;;;2.67;2.67;;;;;;;;4991711;28;48373;-75
2023/07/23 03:12:54;;;;;;;;;3.00;3.00;;;;;;;;4993931;28;45748;-77
2023/07/23 03:15:19;;;;;;;;;4.00;2.00;;;;;;;;4991489;28;46152;-78
2023/07/23 03:17:44;;;;;;;;;4.33;3.00;;;;;;;;4991905;28;45565;-76
2023/07/23 03:20:11;;;;;;;;;4.33;3.00;;;;;;;;4996302;28;45844;-76
2023/07/23 03:22:39;;;;;;;;;4.00;3.00;;;;;;;;4978834;28;45804;-76
2023/07/23 03:25:04;;;;;;;;;4.67;3.00;;;;;;;;4991331;28;45786;-76
2023/07/23 03:27:30;;;;;;;;;2.67;2.00;;;;;;;;4992098;28;45867;-75
2023/07/23 03:29:55;;;;;;;;;3.00;3.00;;;;;;;;4974365;28;47957;-75
2023/07/23 03:32:20;;;;;;;;;3.67;3.67;;;;;;;;4992792;28;45399;-76
2023/07/23 03:34:45;;;;;;;;;1.00;1.00;;;;;;;;4988190;28;45487;-75
2023/07/23 03:37:10;;;;;;;;;4.67;3.67;;;;;;;;4990166;28;45781;-76
2023/07/23 03:39:36;;;;;;;;;2.67;2.33;;;;;;;;4990922;28;46250;-74
2023/07/23 03:42:02;;;;;;;;;5.33;5.00;;;;;;;;4990637;28;45987;-76
2023/07/23 03:44:27;;;;;;;;;2.00;2.00;;;;;;;;4991555;28;45875;-77
2023/07/23 03:47:04;;;;;;;;;2.00;2.00;;;;;;;;4988987;28;46192;-75
2023/07/23 03:49:29;;;;;;;;;2.00;2.00;;;;;;;;4987904;28;45874;-76
2023/07/23 03:51:54;;;;;;;;;6.00;4.00;;;;;;;;4989281;28;45833;-76
2023/07/23 03:54:19;;;;;;;;;3.00;3.00;;;;;;;;4989019;28;45796;-81
2023/07/23 03:56:45;;;;;;;;;2.67;2.67;;;;;;;;4993170;28;45312;-80
2023/07/23 03:59:10;;;;;;;;;2.33;2.33;;;;;;;;4990992;28;46253;-80
2023/07/23 04:01:35;;;;;;;;;3.33;3.00;;;;;;;;4991282;28;45658;-79
2023/07/23 04:04:00;;;;;;;;;4.33;3.00;;;;;;;;4996107;28;45883;-82
2023/07/23 04:06:26;;;;;;;;;4.00;4.00;;;;;;;;4991495;28;45484;-80
2023/07/23 04:08:51;;;;;;;;;3.00;3.00;;;;;;;;4971327;28;50250;-80
2023/07/23 04:11:16;;;;;;;;;5.33;4.00;;;;;;;;4991596;28;45713;-80
2023/07/23 04:13:42;;;;;;;;;4.33;3.00;;;;;;;;4990527;28;45431;-80
2023/07/23 04:16:08;;;;;;;;;3.67;2.67;;;;;;;;4990912;28;45686;-81
2023/07/23 04:18:46;;;;;;;;;5.00;3.33;;;;;;;;4993215;28;46157;-79
2023/07/23 04:21:12;;;;;;;;;5.00;4.00;;;;;;;;4988153;28;45979;-80
2023/07/23 04:23:37;;;;;;;;;3.00;3.00;;;;;;;;4970689;28;45722;-80
2023/07/23 04:26:02;;;;;;;;;4.00;4.00;;;;;;;;4990470;28;45785;-80
2023/07/23 04:28:27;;;;;;;;;7.33;5.00;;;;;;;;4990937;28;47146;-75
2023/07/23 04:30:53;;;;;;;;;5.33;3.00;;;;;;;;4972085;28;45859;-76
2023/07/23 04:33:18;;;;;;;;;5.00;4.00;;;;;;;;4989105;28;45502;-77
2023/07/23 04:35:43;;;;;;;;;4.67;4.67;;;;;;;;4971825;28;45799;-76
2023/07/23 04:38:09;;;;;;;;;3.00;3.00;;;;;;;;4972969;28;47008;-77
2023/07/23 04:40:35;;;;;;;;;4.67;3.67;;;;;;;;4973029;28;45408;-76
2023/07/23 04:43:00;;;;;;;;;4.00;4.00;;;;;;;;4990158;28;45869;-75
2023/07/23 04:45:25;;;;;;;;;4.00;3.00;;;;;;;;4987241;28;45960;-76
2023/07/23 04:47:50;;;;;;;;;1.67;1.67;;;;;;;;4989722;28;45828;-75
2023/07/23 04:50:16;;;;;;;;;3.00;3.00;;;;;;;;4978877;28;45722;-76
2023/07/23 04:52:41;;;;;;;;;2.00;2.00;;;;;;;;4969492;28;45786;-75
2023/07/23 04:55:08;;;;;;;;;2.00;2.00;;;;;;;;4990150;28;45591;-76
2023/07/23 04:57:33;;;;;;;;;4.33;4.00;;;;;;;;4982507;28;45891;-75
2023/07/23 04:59:58;;;;;;;;;2.00;2.00;;;;;;;;4978976;28;45361;-75
2023/07/23 05:02:24;;;;;;;;;3.67;3.67;;;;;;;;4973139;28;45756;-74
2023/07/23 05:04:49;;;;;;;;;4.00;4.00;;;;;;;;4989659;28;45930;-75
2023/07/23 05:07:15;;;;;;;;;2.67;2.67;;;;;;;;4978063;28;47312;-79
2023/07/23 05:09:44;;;;;;;;;3.67;3.67;;;;;;;;4976165;28;45932;-76
2023/07/23 05:12:09;;;;;;;;;3.00;3.00;;;;;;;;4988524;28;45634;-79
2023/07/23 05:14:35;;;;;;;;;3.67;3.33;;;;;;;;4984177;28;45751;-77
2023/07/23 05:17:00;;;;;;;;;3.67;3.33;;;;;;;;4986988;28;46345;-76
2023/07/23 05:19:26;;;;;;;;;5.00;3.00;;;;;;;;4989018;28;45800;-75
2023/07/23 05:21:53;;;;;;;;;3.00;3.00;;;;;;;;4987434;28;45874;-75
2023/07/23 05:24:19;;;;;;;;;4.00;3.33;;;;;;;;4987773;28;45916;-74
2023/07/23 05:26:44;;;;;;;;;4.00;3.00;;;;;;;;4987842;28;45703;-73
2023/07/23 05:29:10;;;;;;;;;3.33;3.00;;;;;;;;4988153;28;45759;-75
2023/07/23 05:31:35;;;;;;;;;4.00;4.00;;;;;;;;4970302;28;45805;-75
2023/07/23 05:34:00;;;;;;;;;2.00;2.00;;;;;;;;4981983;28;45672;-75
2023/07/23 05:36:25;;;;;;;;;4.33;3.67;;;;;;;;4988758;28;45639;-77
2023/07/23 05:38:51;;;;;;;;;2.00;2.00;;;;;;;;4987553;28;45530;-76
2023/07/23 05:41:17;;;;;;;;;4.33;4.33;;;;;;;;4970527;28;46108;-79
2023/07/23 05:43:42;;;;;;;;;2.00;2.00;;;;;;;;4971447;28;45988;-77
2023/07/23 05:46:08;;;;;;;;;2.00;2.00;;;;;;;;4980802;28;46118;-76
2023/07/23 05:48:33;;;;;;;;;4.00;2.67;;;;;;;;4982042;28;45956;-77
2023/07/23 05:50:58;;;;;;;;;2.00;2.00;;;;;;;;4981511;28;45961;-78
2023/07/23 05:53:24;;;;;;;;;4.33;2.00;;;;;;;;4980377;28;45628;-77
2023/07/23 05:55:49;;;;;;;;;3.00;3.00;;;;;;;;4980307;28;47093;-77
2023/07/23 05:58:14;;;;;;;;;3.67;2.67;;;;;;;;4992524;28;45560;-78
2023/07/23 06:00:39;;;;;;;;;4.67;4.33;;;;;;;;4984476;28;45565;-79
2023/07/23 06:03:05;;;;;;;;;3.67;3.33;;;;;;;;4985561;28;46119;-77
2023/07/23 06:05:30;;;;;;;;;3.00;3.00;;;;;;;;4986588;28;46310;-77
2023/07/23 06:07:55;;;;;;;;;3.00;3.00;;;;;;;;4980236;28;45850;-78
2023/07/23 06:10:21;;;;;;;;;29.00;25.00;;;;;;;;4980591;28;45680;-78
2023/07/23 06:12:46;;;;;;;;;14.00;12.00;;;;;;;;4978176;28;45456;-78
2023/07/23 06:15:11;;;;;;;;;5.67;4.67;;;;;;;;4966829;28;47944;-78
2023/07/23 06:17:36;;;;;;;;;4.00;4.00;;;;;;;;4991883;28;46033;-77
2023/07/23 06:20:01;;;;;;;;;5.00;4.00;;;;;;;;4983751;28;45820;-76
2023/07/23 06:22:27;;;;;;;;;10.67;10.67;;;;;;;;4974487;28;45900;-75
2023/07/23 06:24:52;;;;;;;;;22.00;17.33;;;;;;;;4965039;28;47483;-77
2023/07/23 06:27:17;;;;;;;;;66.00;50.50;;;;;;;;4991227;28;45471;-78
2023/07/23 06:29:42;;;;;;;;;79.75;65.00;;;;;;;;4985143;28;46058;-80
2023/07/23 06:32:08;;;;;;;;;43.33;37.67;;;;;;;;4979261;28;46244;-76
2023/07/23 06:34:33;;;;;;;;;29.67;25.33;;;;;;;;4982854;28;45725;-77
2023/07/23 06:36:58;;;;;;;;;10.33;9.67;;;;;;;;4973249;28;45711;-78
2023/07/23 06:39:24;;;;;;;;;5.00;5.00;;;;;;;;4971240;28;45797;-79
2023/07/23 06:41:49;;;;;;;;;3.00;3.00;;;;;;;;4982277;28;45833;-79
2023/07/23 06:44:14;;;;;;;;;4.00;3.00;;;;;;;;4972968;28;47216;-81
2023/07/23 06:46:39;;;;;;;;;3.75;2.25;;;;;;;;4987721;28;45508;-81
2023/07/23 06:49:05;;;;;;;;;4.33;2.67;;;;;;;;4988464;28;45428;-79
2023/07/23 06:51:30;;;;;;;;;4.00;4.00;;;;;;;;4974030;28;45519;-79
2023/07/23 06:53:55;;;;;;;;;4.67;3.00;;;;;;;;4965385;28;47234;-78
2023/07/23 06:56:20;;;;;;;;;5.50;3.25;;;;;;;;4986366;28;45597;-81
2023/07/23 06:58:46;;;;;;;;;4.00;2.67;;;;;;;;4979602;28;45460;-80
2023/07/23 07:01:11;;;;;;;;;4.33;3.33;;;;;;;;4983844;28;45773;-80
2023/07/23 07:03:37;;;;;;;;;4.00;4.00;;;;;;;;4981078;28;45494;-79
2023/07/23 07:06:03;;;;;;;;;4.00;3.67;;;;;;;;4987234;28;45601;-79
2023/07/23 07:08:32;;;;;;;;;3.33;3.33;;;;;;;;4985458;28;46692;-79
2023/07/23 07:10:58;;;;;;;;;4.25;3.75;;;;;;;;4969156;28;46055;-80
2023/07/23 07:13:24;;;;;;;;;3.00;2.00;;;;;;;;4982997;28;46029;-80
2023/07/23 07:15:49;;;;;;;;;4.00;3.00;;;;;;;;4989440;28;45923;-79
2023/07/23 07:18:14;;;;;;;;;8.33;4.00;;;;;;;;4987800;28;45643;-79
2023/07/23 07:20:39;;;;;;;;;6.00;6.00;;;;;;;;4972535;28;45993;-80
2023/07/23 07:23:05;;;;;;;;;4.33;4.33;;;;;;;;4973851;28;47090;-81
2023/07/23 07:25:30;;;;;;;;;4.67;3.33;;;;;;;;4971396;28;45424;-79
2023/07/23 07:27:55;;;;;;;;;4.00;4.00;;;;;;;;4989842;28;45553;-80
2023/07/23 07:30:20;;;;;;;;;4.00;3.00;;;;;;;;4987098;28;45455;-80
2023/07/23 07:32:45;;;;;;;;;4.00;3.00;;;;;;;;4988269;28;45385;-80
2023/07/23 07:35:11;;;;;;;;;4.33;2.00;;;;;;;;4971553;28;45539;-81
2023/07/23 07:37:36;;;;;;;;;6.00;5.33;;;;;;;;4972327;28;45898;-80
2023/07/23 07:40:01;;;;;;;;;2.00;2.00;;;;;;;;4972537;28;45766;-78
2023/07/23 07:42:26;;;;;;;;;6.00;4.00;;;;;;;;4989552;28;45451;-80
2023/07/23 07:44:52;;;;;;;;;4.00;4.00;;;;;;;;4989754;28;46150;-80
2023/07/23 07:47:17;;;;;;;;;3.50;3.00;;;;;;;;4989249;28;45858;-80
2023/07/23 07:49:42;;;;;;;;;2.25;2.00;;;;;;;;5002654;28;45976;-81
2023/07/23 07:52:07;;;;;;;;;3.50;2.50;;;;;;;;4990945;28;48320;-81
2023/07/23 07:54:35;;;;;;;;;5.25;3.75;;;;;;;;4993037;28;45886;-80
2023/07/23 07:57:00;;;;;;;;;3.00;2.00;;;;;;;;4990061;28;45633;-80
2023/07/23 07:59:26;;;;;;;;;3.00;3.00;;;;;;;;4987879;28;45745;-78
2023/07/23 08:01:51;;;;;;;;;1.75;1.75;;;;;;;;4967768;28;45805;-80
2023/07/23 08:04:16;;;;;;;;;3.00;3.00;;;;;;;;4965827;28;45545;-79
2023/07/23 08:06:42;;;;;;;;;4.00;2.50;;;;;;;;4992610;28;45380;-77
2023/07/23 08:09:08;;;;;;;;;3.00;3.00;;;;;;;;4993665;28;45594;-78
2023/07/23 08:11:34;;;;;;;;;3.50;2.00;;;;;;;;4971807;28;46116;-82
2023/07/23 08:14:01;;;;;;;;;4.25;3.00;;;;;;;;4980071;28;45818;-82
2023/07/23 08:16:26;;;;;;;;;5.25;3.00;;;;;;;;4990991;28;45871;-81
2023/07/23 08:18:52;;;;;;;;;4.00;4.00;;;;;;;;4993523;28;45514;-81
2023/07/23 08:21:17;;;;;;;;;3.00;3.00;;;;;;;;4970869;28;47156;-80
2023/07/23 08:23:42;;;;;;;;;2.00;2.00;;;;;;;;4985256;28;45400;-80
2023/07/23 08:26:08;;;;;;;;;2.75;2.75;;;;;;;;4987374;28;45688;-79
2023/07/23 08:28:37;;;;;;;;;3.75;3.75;;;;;;;;4975200;28;47231;-79
2023/07/23 08:31:03;;;;;;;;;4.00;2.75;;;;;;;;4971411;28;46364;-79
2023/07/23 08:33:29;;;;;;;;;6.00;2.00;;;;;;;;4988540;28;45646;-79
2023/07/23 08:35:55;;;;;;;;;4.25;3.00;;;;;;;;4989310;28;45408;-78
2023/07/23 08:38:21;;;;;;;;;3.75;2.75;;;;;;;;4987528;28;45842;-81
2023/07/23 08:40:48;;;;;;;;;7.25;5.25;;;;;;;;4988394;28;45808;-83
2023/07/23 08:43:32;;;;;;;;;5.00;4.00;;;;;;;;4973158;28;46170;-79
2023/07/23 08:46:00;;;;;;;;;4.00;4.00;;;;;;;;4990372;28;45829;-81
2023/07/23 08:48:36;;;;;;;;;2.25;2.25;;;;;;;;4969601;28;45919;-81
2023/07/23 08:51:01;;;;;;;;;3.33;3.33;;;;;;;;4976358;28;46736;-82
2023/07/23 08:53:26;;;;;;;;;4.00;4.00;;;;;;;;4986974;28;45843;-81
2023/07/23 08:55:52;;;;;;;;;3.00;1.75;;;;;;;;4981880;28;45568;-80
2023/07/23 08:58:18;;;;;;;;;2.00;2.00;;;;;;;;4990880;28;45531;-78
2023/07/23 09:00:44;;;;;;;;;3.25;2.00;;;;;;;;4985103;28;48599;-82
2023/07/23 09:03:10;;;;;;;;;6.00;4.00;;;;;;;;4978280;28;45896;-79
2023/07/23 09:05:37;;;;;;;;;6.00;3.75;;;;;;;;4976012;28;45379;-82
2023/07/23 09:08:02;;;;;;;;;4.33;3.00;;;;;;;;4983593;28;45843;-78
2023/07/23 09:10:27;;;;;;;;;3.67;2.67;;;;;;;;4972084;28;46488;-79
2023/07/23 09:12:53;;;;;;;;;3.00;2.00;;;;;;;;4990075;28;45623;-79
2023/07/23 09:15:18;;;;;;;;;5.00;4.00;;;;;;;;4987700;28;45934;-79
2023/07/23 09:17:47;;;;;;;;;2.67;2.33;;;;;;;;4982684;28;45624;-80
2023/07/23 09:20:13;;;;;;;;;2.33;2.33;;;;;;;;4988232;28;45451;-79
2023/07/23 09:22:38;;;;;;;;;5.67;3.33;;;;;;;;4974444;28;45387;-79
2023/07/23 09:25:04;;;;;;;;;3.67;2.67;;;;;;;;4988003;28;46703;-79
2023/07/23 09:27:36;;;;;;;;;5.67;5.00;;;;;;;;4983644;28;45737;-81
2023/07/23 09:30:02;;;;;;;;;9.67;7.00;;;;;;;;4988482;28;45585;-81
2023/07/23 09:32:29;;;;;;;;;5.67;3.33;;;;;;;;4971532;28;45584;-79
2023/07/23 09:34:56;;;;;;;;;2.00;2.00;;;;;;;;4985201;28;45179;-80
2023/07/23 09:37:26;;;;;;;;;3.00;3.00;;;;;;;;4990067;28;45793;-81
2023/07/23 09:39:53;;;;;;;;;5.00;3.67;;;;;;;;4972716;28;46257;-82
2023/07/23 09:42:20;;;;;;;;;4.00;3.00;;;;;;;;4971926;28;45922;-81
2023/07/23 09:44:46;;;;;;;;;3.75;3.00;;;;;;;;4954535;28;45549;-81
2023/07/23 09:47:12;;;;;;;;;3.00;3.00;;;;;;;;4987268;28;45413;-81
2023/07/23 09:49:39;;;;;;;;;4.00;3.25;;;;;;;;4972146;28;46097;-82
2023/07/23 09:52:06;;;;;;;;;5.33;5.00;;;;;;;;4989436;28;45936;-82
2023/07/23 09:54:32;;;;;;;;;5.00;5.00;;;;;;;;4962234;28;45541;-81
2023/07/23 09:56:58;;;;;;;;;3.00;3.00;;;;;;;;4973175;28;46191;-81
2023/07/23 09:59:24;;;;;;;;;7.00;4.33;;;;;;;;4988169;28;45806;-82
2023/07/23 10:01:49;;;;;;;;;7.00;4.67;;;;;;;;4975449;28;45815;-82
2023/07/23 10:04:18;;;;;;;;;34.00;30.00;;;;;;;;4975354;28;45897;-81
2023/07/23 10:06:46;;;;;;;;;16.00;16.00;;;;;;;;4994705;28;45479;-82
2023/07/23 10:09:13;;;;;;;;;16.00;15.00;;;;;;;;4994872;28;45449;-81
2023/07/23 10:11:38;;;;;;;;;27.00;24.67;;;;;;;;4988058;28;45220;-84
2023/07/23 10:14:03;;;;;;;;;11.67;8.67;;;;;;;;4976710;28;45394;-83
2023/07/23 10:16:39;;;;;;;;;14.00;12.67;;;;;;;;4993138;28;45735;-83
2023/07/23 10:19:04;;;;;;;;;15.00;11.67;;;;;;;;4994665;28;46367;-84
2023/07/23 10:21:31;;;;;;;;;10.67;10.67;;;;;;;;4973931;28;45861;-82
2023/07/23 10:23:57;;;;;;;;;10.33;9.33;;;;;;;;4977187;28;45754;-84
2023/07/23 10:26:22;;;;;;;;;12.00;9.33;;;;;;;;4967708;28;46052;-85
2023/07/23 10:28:48;;;;;;;;;11.67;11.33;;;;;;;;4977103;28;45503;-83
2023/07/23 10:31:27;;;;;;;;;10.67;8.33;;;;;;;;4985929;28;45642;-82
2023/07/23 10:33:52;;;;;;;;;23.33;23.33;;;;;;;;4975441;28;45842;-83
2023/07/23 10:36:19;;;;;;;;;10.00;8.00;;;;;;;;4984493;28;45773;-83
2023/07/23 10:38:44;;;;;;;;;10.67;9.33;;;;;;;;4972149;28;47307;-84
2023/07/23 10:41:10;;;;;;;;;34.33;33.00;;;;;;;;4972657;28;45741;-83
2023/07/23 10:43:42;;;;;;;;;3.25;3.25;;;;;;;;4967874;28;45423;-82
2023/07/23 10:46:12;;;;;;;;;3.25;2.50;;;;;;;;5002338;28;46089;-80
2023/07/23 10:48:40;;;;;;;;;3.25;3.25;;;;;;;;4974358;28;45977;-81
2023/07/23 10:51:06;;;;;;;;;5.00;3.25;;;;;;;;4981326;28;45911;-82
2023/07/23 10:53:36;;;;;;;;;6.00;4.50;;;;;;;;4982706;28;45823;-82
2023/07/23 10:56:02;;;;;;;;;6.75;4.75;;;;;;;;4967556;28;46211;-82
2023/07/23 10:58:28;;;;;;;;;6.25;5.50;;;;;;;;4966903;28;47857;-82
2023/07/23 11:00:54;;;;;;;;;4.75;3.75;;;;;;;;4967732;28;45840;-81
2023/07/23 11:03:21;;;;;;;;;5.25;4.75;;;;;;;;4977476;28;47055;-81
2023/07/23 11:05:46;;;;;;;;;24.00;22.00;;;;;;;;4981019;28;45950;-82
2023/07/23 11:08:13;;;;;;;;;3.00;3.00;;;;;;;;4992227;28;45987;-82
2023/07/23 11:10:45;;;;;;;;;4.67;4.00;;;;;;;;4982466;28;45802;-82
2023/07/23 11:13:10;;;;;;;;;3.50;3.50;;;;;;;;4981660;28;46160;-82
2023/07/23 11:15:36;;;;;;;;;3.75;3.75;;;;;;;;4969813;28;46734;-80
2023/07/23 11:18:02;;;;;;;;;5.67;5.67;;;;;;;;4989736;28;46270;-82
2023/07/23 11:20:28;;;;;;;;;5.00;4.67;;;;;;;;4969310;28;46021;-80
2023/07/23 11:22:53;;;;;;;;;4.75;3.50;;;;;;;;4985526;28;45771;-82
2023/07/23 11:25:18;;;;;;;;;6.00;4.00;;;;;;;;4995527;28;45639;-83
2023/07/23 11:27:44;;;;;;;;;6.00;6.00;;;;;;;;4974589;28;47608;-82
2023/07/23 11:30:12;;;;;;;;;2.50;2.50;;;;;;;;4974934;28;45752;-82
2023/07/23 11:32:37;;;;;;;;;2.00;2.00;;;;;;;;4973975;28;46046;-81
2023/07/23 11:35:03;;;;;;;;;5.25;3.50;;;;;;;;4991305;28;46013;-82
2023/07/23 11:37:28;;;;;;;;;11.00;10.00;;;;;;;;4985719;28;46516;-86
2023/07/23 11:39:55;;;;;;;;;2.00;2.00;;;;;;;;4979041;28;45476;-81
2023/07/23 11:42:21;;;;;;;;;4.50;4.00;;;;;;;;4978752;28;45916;-83
2023/07/23 11:44:59;;;;;;;;;3.00;3.00;;;;;;;;4994409;28;45642;-82
2023/07/23 11:47:25;;;;;;;;;0.75;0.25;;;;;;;;4981431;28;46432;-81
2023/07/23 11:49:50;;;;;;;;;7.33;6.00;;;;;;;;5000163;28;45778;-83
2023/07/23 11:52:21;;;;;;;;;5.50;5.50;;;;;;;;4998353;28;45904;-82
2023/07/23 11:54:46;;;;;;;;;9.00;9.00;;;;;;;;4983359;28;46130;-82
2023/07/23 11:57:12;;;;;;;;;5.67;4.67;;;;;;;;4983856;28;46232;-82
2023/07/23 11:59:39;;;;;;;;;3.67;3.67;;;;;;;;4995147;28;45758;-83
2023/07/23 12:02:04;;;;;;;;;5.67;5.67;;;;;;;;4995939;28;45797;-86
2023/07/23 12:04:36;;;;;;;;;5.25;4.50;;;;;;;;4989006;28;45830;-81
2023/07/23 12:07:01;;;;;;;;;9.00;9.00;;;;;;;;4990828;28;46819;-81
2023/07/23 12:09:27;;;;;;;;;12.33;9.67;;;;;;;;4989081;28;45871;-81
2023/07/23 12:11:52;;;;;;;;;4.25;4.25;;;;;;;;4989696;28;45772;-81
2023/07/23 12:14:17;;;;;;;;;6.00;6.00;;;;;;;;4989707;28;46702;-81
2023/07/23 12:16:49;;;;;;;;;6.50;6.00;;;;;;;;4990827;28;45765;-81
2023/07/23 12:19:21;;;;;;;;;5.33;4.67;;;;;;;;4990204;28;45757;-82
2023/07/23 12:21:48;;;;;;;;;11.67;9.67;;;;;;;;4972105;28;45946;-81
2023/07/23 12:24:17;;;;;;;;;5.00;5.00;;;;;;;;4985052;28;45423;-83
2023/07/23 12:26:44;;;;;;;;;4.67;4.67;;;;;;;;4981675;28;45917;-82
2023/07/23 12:29:09;;;;;;;;;4.00;4.00;;;;;;;;4983898;28;45399;-82
2023/07/23 12:31:40;;;;;;;;;5.67;5.67;;;;;;;;4986638;28;45824;-81
2023/07/23 12:34:05;;;;;;;;;7.00;5.00;;;;;;;;4990705;28;45960;-81
2023/07/23 12:36:30;;;;;;;;;9.00;8.00;;;;;;;;4983995;28;46053;-81
2023/07/23 12:38:55;;;;;;;;;4.67;4.67;;;;;;;;4974394;28;45826;-79
2023/07/23 12:41:21;;;;;;;;;6.33;4.33;;;;;;;;4988436;28;45946;-81
2023/07/23 12:43:46;;;;;;;;;7.00;3.67;;;;;;;;4975490;28;45560;-81
2023/07/23 12:46:12;;;;;;;;;5.67;4.33;;;;;;;;4989203;28;45725;-82
2023/07/23 12:48:37;;;;;;;;;4.00;4.00;;;;;;;;4984301;28;45493;-81
2023/07/23 12:51:02;;;;;;;;;6.00;3.75;;;;;;;;4983080;28;45781;-81
2023/07/23 12:53:28;;;;;;;;;5.50;5.00;;;;;;;;4979897;28;45898;-83
2023/07/23 12:55:56;;;;;;;;;5.67;4.67;;;;;;;;4983855;28;46142;-82
2023/07/23 12:58:21;;;;;;;;;4.00;4.00;;;;;;;;4963327;28;45822;-80
2023/07/23 13:00:46;;;;;;;;;6.00;5.25;;;;;;;;4975343;28;46334;-81
2023/07/23 13:03:11;;;;;;;;;5.33;5.00;;;;;;;;4984535;28;45878;-81
2023/07/23 13:05:37;;;;;;;;;8.33;6.67;;;;;;;;4988418;28;45926;-80
2023/07/23 13:08:02;;;;;;;;;6.67;6.67;;;;;;;;4986408;28;45479;-79
2023/07/23 13:10:27;;;;;;;;;4.50;4.50;;;;;;;;4978265;28;45402;-80
2023/07/23 13:12:52;;;;;;;;;6.00;5.00;;;;;;;;4986433;28;45821;-79
2023/07/23 13:15:18;;;;;;;;;7.50;6.50;;;;;;;;4987046;28;46155;-79
2023/07/23 13:17:45;;;;;;;;;4.25;4.25;;;;;;;;4986455;28;46494;-82
2023/07/23 13:20:11;;;;;;;;;5.25;5.25;;;;;;;;4984903;28;45769;-79
2023/07/23 13:22:36;;;;;;;;;8.25;5.75;;;;;;;;4989442;28;45443;-79
2023/07/23 13:25:01;;;;;;;;;8.25;7.25;;;;;;;;4993623;28;45993;-79
2023/07/23 13:27:26;;;;;;;;;11.33;9.00;;;;;;;;4988372;28;45475;-79
2023/07/23 13:29:52;;;;;;;;;6.75;5.75;;;;;;;;4958417;28;45816;-80
2023/07/23 13:32:17;;;;;;;;;7.25;5.25;;;;;;;;4972985;28;46318;-81
2023/07/23 13:34:42;;;;;;;;;7.25;5.00;;;;;;;;4983164;28;46907;-79
2023/07/23 13:37:10;;;;;;;;;4.00;3.25;;;;;;;;4981030;28;45742;-79
2023/07/23 13:39:35;;;;;;;;;7.33;7.33;;;;;;;;4964461;28;46049;-78
2023/07/23 13:42:00;;;;;;;;;5.25;5.25;;;;;;;;4981475;28;45844;-80
2023/07/23 13:44:25;;;;;;;;;6.00;5.00;;;;;;;;4988447;28;46792;-79
2023/07/23 13:46:51;;;;;;;;;3.50;3.00;;;;;;;;4987836;28;45814;-78
2023/07/23 13:49:16;;;;;;;;;4.00;4.00;;;;;;;;4967250;28;45829;-81
2023/07/23 13:51:41;;;;;;;;;3.00;3.00;;;;;;;;4967508;28;46000;-80
2023/07/23 13:54:06;;;;;;;;;4.50;4.50;;;;;;;;4982775;28;45863;-79
2023/07/23 13:56:31;;;;;;;;;3.75;3.75;;;;;;;;4976047;28;46170;-79
2023/07/23 13:58:57;;;;;;;;;3.25;3.25;;;;;;;;4975033;28;45746;-79
2023/07/23 14:01:22;;;;;;;;;25.00;19.67;;;;;;;;4952720;28;45392;-76
2023/07/23 14:03:47;;;;;;;;;6.25;6.25;;;;;;;;4953001;28;46637;-78
2023/07/23 14:06:13;;;;;;;;;6.00;6.00;;;;;;;;4971320;28;45872;-77
2023/07/23 14:08:38;;;;;;;;;4.25;4.25;;;;;;;;4961423;28;45492;-78
2023/07/23 14:11:04;;;;;;;;;1.75;1.75;;;;;;;;4974763;28;45851;-79
2023/07/23 14:13:29;;;;;;;;;7.00;5.00;;;;;;;;4952369;28;47437;-80
2023/07/23 14:15:54;;;;;;;;;3.75;3.75;;;;;;;;4951633;28;45829;-77
2023/07/23 14:18:19;;;;;;;;;5.50;3.75;;;;;;;;4951846;28;45602;-79
2023/07/23 14:20:44;;;;;;;;;4.50;3.00;;;;;;;;4948781;28;45811;-78
2023/07/23 14:23:10;;;;;;;;;5.00;3.50;;;;;;;;4949833;28;48376;-80
2023/07/23 14:25:35;;;;;;;;;3.00;3.00;;;;;;;;4974157;28;45558;-80
2023/07/23 14:28:01;;;;;;;;;2.75;2.75;;;;;;;;4970212;28;45511;-81
2023/07/23 14:30:26;;;;;;;;;3.75;2.50;;;;;;;;4949683;28;45985;-80
2023/07/23 14:32:51;;;;;;;;;2.50;2.25;;;;;;;;4958942;28;45818;-80